sensor_id;sensor_type;location;lat;lon;timestamp;pressure;altitude;pressure_sealevel;temperature;humidity
75089;BME280;63673;49.928;8.150;2024-01-30T00:00:01;1004.64;;;1.39;100
75089;BME280;63673;49.928;8.150;2024-01-30T00:01:03;1004.65;;;1.38;100
75089;BME280;63673;49.928;8.150;2024-01-30T00:02:05;1004.61;;;1.37;100
75089;BME280;63673;49.928;8.150;2024-01-30T00:03:06;1004.61;;;1.38;100
75089;BME280;63673;49.928;8.150;2024-01-30T00:04:08;1004.65;;;1.37;100
75089;BME280;63673;49.928;8.150;2024-01-30T00:05:10;1004.61;;;1.37;100
75089;BME280;63673;49.928;8.150;2024-01-30T00:06:12;1004.61;;;1.37;100
75089;BME280;63673;49.928;8.150;2024-01-30T00:07:13;1004.54;;;1.38;100
75089;BME280;63673;49.928;8.150;2024-01-30T00:08:15;1004.6;;;1.37;100
75089;BME280;63673;49.928;8.150;2024-01-30T00:09:17;1004.55;;;1.37;100
75089;BME280;63673;49.928;8.150;2024-01-30T00:10:18;1004.62;;;1.37;100
75089;BME280;63673;49.928;8.150;2024-01-30T00:11:20;1004.64;;;1.36;100
75089;BME280;63673;49.928;8.150;2024-01-30T00:12:22;1004.63;;;1.36;100
75089;BME280;63673;49.928;8.150;2024-01-30T00:13:24;1004.61;;;1.36;100
75089;BME280;63673;49.928;8.150;2024-01-30T00:14:25;1004.64;;;1.35;100
75089;BME280;63673;49.928;8.150;2024-01-30T00:15:27;1004.6;;;1.35;100
75089;BME280;63673;49.928;8.150;2024-01-30T00:16:29;1004.62;;;1.35;100
75089;BME280;63673;49.928;8.150;2024-01-30T00:17:31;1004.61;;;1.35;100
75089;BME280;63673;49.928;8.150;2024-01-30T00:18:32;1004.68;;;1.35;100
75089;BME280;63673;49.928;8.150;2024-01-30T00:19:34;1004.64;;;1.35;100
75089;BME280;63673;49.928;8.150;2024-01-30T00:20:36;1004.65;;;1.35;100
75089;BME280;63673;49.928;8.150;2024-01-30T00:21:38;1004.62;;;1.34;100
75089;BME280;63673;49.928;8.150;2024-01-30T00:22:39;1004.58;;;1.34;100
75089;BME280;63673;49.928;8.150;2024-01-30T00:23:41;1004.64;;;1.34;100
75089;BME280;63673;49.928;8.150;2024-01-30T00:24:43;1004.63;;;1.34;100
75089;BME280;63673;49.928;8.150;2024-01-30T00:25:45;1004.63;;;1.35;100
75089;BME280;63673;49.928;8.150;2024-01-30T00:26:46;1004.67;;;1.35;100
75089;BME280;63673;49.928;8.150;2024-01-30T00:27:48;1004.66;;;1.35;100
75089;BME280;63673;49.928;8.150;2024-01-30T00:28:50;1004.64;;;1.34;100
75089;BME280;63673;49.928;8.150;2024-01-30T00:29:51;1004.63;;;1.34;100
75089;BME280;63673;49.928;8.150;2024-01-30T00:30:53;1004.61;;;1.34;100
75089;BME280;63673;49.928;8.150;2024-01-30T00:31:55;1004.65;;;1.32;100
75089;BME280;63673;49.928;8.150;2024-01-30T00:32:57;1004.62;;;1.3;100
75089;BME280;63673;49.928;8.150;2024-01-30T00:33:58;1004.62;;;1.3;100
75089;BME280;63673;49.928;8.150;2024-01-30T00:35:00;1004.6;;;1.28;100
75089;BME280;63673;49.928;8.150;2024-01-30T00:36:02;1004.6;;;1.27;100
75089;BME280;63673;49.928;8.150;2024-01-30T00:37:04;1004.6;;;1.25;100
75089;BME280;63673;49.928;8.150;2024-01-30T00:38:05;1004.58;;;1.24;100
75089;BME280;63673;49.928;8.150;2024-01-30T00:39:07;1004.57;;;1.22;100
75089;BME280;63673;49.928;8.150;2024-01-30T00:40:09;1004.59;;;1.21;100
75089;BME280;63673;49.928;8.150;2024-01-30T00:41:11;1004.57;;;1.2;100
75089;BME280;63673;49.928;8.150;2024-01-30T00:42:12;1004.61;;;1.19;100
75089;BME280;63673;49.928;8.150;2024-01-30T00:43:14;1004.59;;;1.19;100
75089;BME280;63673;49.928;8.150;2024-01-30T00:44:16;1004.68;;;1.17;100
75089;BME280;63673;49.928;8.150;2024-01-30T00:45:17;1004.65;;;1.17;100
75089;BME280;63673;49.928;8.150;2024-01-30T00:46:19;1004.67;;;1.16;100
75089;BME280;63673;49.928;8.150;2024-01-30T00:47:48;1004.62;;;1.15;100
75089;BME280;63673;49.928;8.150;2024-01-30T00:49:23;1004.66;;;1.14;100
75089;BME280;63673;49.928;8.150;2024-01-30T00:50:55;1004.64;;;1.13;100
75089;BME280;63673;49.928;8.150;2024-01-30T00:51:56;1004.61;;;1.12;100
75089;BME280;63673;49.928;8.150;2024-01-30T00:52:58;1004.64;;;1.11;100
75089;BME280;63673;49.928;8.150;2024-01-30T00:53:59;1004.61;;;1.11;100
75089;BME280;63673;49.928;8.150;2024-01-30T00:55:03;1004.59;;;1.1;100
75089;BME280;63673;49.928;8.150;2024-01-30T00:56:04;1004.63;;;1.09;100
75089;BME280;63673;49.928;8.150;2024-01-30T00:57:05;1004.58;;;1.08;100
75089;BME280;63673;49.928;8.150;2024-01-30T00:58:11;1004.58;;;1.07;100
75089;BME280;63673;49.928;8.150;2024-01-30T00:59:11;1004.58;;;1.07;100
75089;BME280;63673;49.928;8.150;2024-01-30T01:00:11;1004.65;;;1.05;100
75089;BME280;63673;49.928;8.150;2024-01-30T01:01:13;1004.62;;;1.05;100
75089;BME280;63673;49.928;8.150;2024-01-30T01:02:14;1004.59;;;1.05;100
75089;BME280;63673;49.928;8.150;2024-01-30T01:03:17;1004.61;;;1.03;100
75089;BME280;63673;49.928;8.150;2024-01-30T01:04:18;1004.62;;;1.02;100
75089;BME280;63673;49.928;8.150;2024-01-30T01:05:20;1004.62;;;1.02;100
75089;BME280;63673;49.928;8.150;2024-01-30T01:06:21;1004.59;;;1.02;100
75089;BME280;63673;49.928;8.150;2024-01-30T01:07:23;1004.59;;;1.03;100
75089;BME280;63673;49.928;8.150;2024-01-30T01:08:25;1004.6;;;1.04;100
75089;BME280;63673;49.928;8.150;2024-01-30T01:09:27;1004.61;;;1.04;100
75089;BME280;63673;49.928;8.150;2024-01-30T01:10:28;1004.52;;;1.04;100
75089;BME280;63673;49.928;8.150;2024-01-30T01:11:30;1004.61;;;1.04;100
75089;BME280;63673;49.928;8.150;2024-01-30T01:12:32;1004.65;;;1.05;100
75089;BME280;63673;49.928;8.150;2024-01-30T01:13:34;1004.62;;;1.04;100
75089;BME280;63673;49.928;8.150;2024-01-30T01:14:35;1004.57;;;1.04;100
75089;BME280;63673;49.928;8.150;2024-01-30T01:15:37;1004.6;;;1.05;100
75089;BME280;63673;49.928;8.150;2024-01-30T01:16:39;1004.6;;;1.02;100
75089;BME280;63673;49.928;8.150;2024-01-30T01:17:40;1004.64;;;1.03;100
75089;BME280;63673;49.928;8.150;2024-01-30T01:18:42;1004.63;;;1.02;100
75089;BME280;63673;49.928;8.150;2024-01-30T01:19:44;1004.67;;;1;100
75089;BME280;63673;49.928;8.150;2024-01-30T01:20:46;1004.69;;;0.99;100
75089;BME280;63673;49.928;8.150;2024-01-30T01:21:47;1004.67;;;0.99;100
75089;BME280;63673;49.928;8.150;2024-01-30T01:22:49;1004.67;;;0.98;100
75089;BME280;63673;49.928;8.150;2024-01-30T01:23:51;1004.64;;;0.97;100
75089;BME280;63673;49.928;8.150;2024-01-30T01:24:53;1004.65;;;0.96;100
75089;BME280;63673;49.928;8.150;2024-01-30T01:25:54;1004.68;;;0.94;100
75089;BME280;63673;49.928;8.150;2024-01-30T01:26:57;1004.69;;;0.92;100
75089;BME280;63673;49.928;8.150;2024-01-30T01:27:58;1004.7;;;0.92;100
75089;BME280;63673;49.928;8.150;2024-01-30T01:29:00;1004.7;;;0.9;100
75089;BME280;63673;49.928;8.150;2024-01-30T01:30:01;1004.66;;;0.9;100
75089;BME280;63673;49.928;8.150;2024-01-30T01:31:03;1004.63;;;0.89;100
75089;BME280;63673;49.928;8.150;2024-01-30T01:32:05;1004.66;;;0.88;100
75089;BME280;63673;49.928;8.150;2024-01-30T01:33:06;1004.64;;;0.87;100
75089;BME280;63673;49.928;8.150;2024-01-30T01:34:08;1004.66;;;0.86;100
75089;BME280;63673;49.928;8.150;2024-01-30T01:35:10;1004.64;;;0.85;100
75089;BME280;63673;49.928;8.150;2024-01-30T01:36:13;1004.64;;;0.86;100
75089;BME280;63673;49.928;8.150;2024-01-30T01:37:13;1004.62;;;0.87;100
75089;BME280;63673;49.928;8.150;2024-01-30T01:38:15;1004.67;;;0.88;100
75089;BME280;63673;49.928;8.150;2024-01-30T01:39:17;1004.63;;;0.88;100
75089;BME280;63673;49.928;8.150;2024-01-30T01:40:19;1004.66;;;0.89;100
75089;BME280;63673;49.928;8.150;2024-01-30T01:41:20;1004.66;;;0.9;100
75089;BME280;63673;49.928;8.150;2024-01-30T01:42:22;1004.59;;;0.91;100
75089;BME280;63673;49.928;8.150;2024-01-30T01:43:24;1004.67;;;0.91;100
75089;BME280;63673;49.928;8.150;2024-01-30T01:44:26;1004.64;;;0.91;100
75089;BME280;63673;49.928;8.150;2024-01-30T01:45:27;1004.61;;;0.91;100
75089;BME280;63673;49.928;8.150;2024-01-30T01:46:30;1004.65;;;0.91;100
75089;BME280;63673;49.928;8.150;2024-01-30T01:47:31;1004.62;;;0.88;100
75089;BME280;63673;49.928;8.150;2024-01-30T01:48:32;1004.61;;;0.88;100
75089;BME280;63673;49.928;8.150;2024-01-30T01:49:34;1004.6;;;0.87;100
75089;BME280;63673;49.928;8.150;2024-01-30T01:50:36;1004.59;;;0.86;100
75089;BME280;63673;49.928;8.150;2024-01-30T01:51:38;1004.62;;;0.84;100
75089;BME280;63673;49.928;8.150;2024-01-30T01:52:40;1004.61;;;0.83;100
75089;BME280;63673;49.928;8.150;2024-01-30T01:53:41;1004.59;;;0.82;100
75089;BME280;63673;49.928;8.150;2024-01-30T01:54:43;1004.56;;;0.8;100
75089;BME280;63673;49.928;8.150;2024-01-30T01:55:45;1004.61;;;0.78;100
75089;BME280;63673;49.928;8.150;2024-01-30T01:56:46;1004.59;;;0.77;100
75089;BME280;63673;49.928;8.150;2024-01-30T01:57:48;1004.61;;;0.76;100
75089;BME280;63673;49.928;8.150;2024-01-30T01:58:50;1004.62;;;0.75;100
75089;BME280;63673;49.928;8.150;2024-01-30T01:59:52;1004.61;;;0.73;100
75089;BME280;63673;49.928;8.150;2024-01-30T02:00:53;1004.47;;;0.71;100
75089;BME280;63673;49.928;8.150;2024-01-30T02:01:55;1004.6;;;0.69;100
75089;BME280;63673;49.928;8.150;2024-01-30T02:02:57;1004.59;;;0.68;100
75089;BME280;63673;49.928;8.150;2024-01-30T02:03:59;1004.6;;;0.66;100
75089;BME280;63673;49.928;8.150;2024-01-30T02:05:00;1004.55;;;0.63;100
75089;BME280;63673;49.928;8.150;2024-01-30T02:06:02;1004.5;;;0.62;100
75089;BME280;63673;49.928;8.150;2024-01-30T02:07:04;1004.51;;;0.6;100
75089;BME280;63673;49.928;8.150;2024-01-30T02:08:06;1004.5;;;0.6;100
75089;BME280;63673;49.928;8.150;2024-01-30T02:09:07;1004.53;;;0.58;100
75089;BME280;63673;49.928;8.150;2024-01-30T02:10:09;1004.49;;;0.56;100
75089;BME280;63673;49.928;8.150;2024-01-30T02:11:11;1004.54;;;0.54;100
75089;BME280;63673;49.928;8.150;2024-01-30T02:12:12;1004.51;;;0.53;100
75089;BME280;63673;49.928;8.150;2024-01-30T02:13:14;1004.49;;;0.51;100
75089;BME280;63673;49.928;8.150;2024-01-30T02:14:16;1004.49;;;0.5;100
75089;BME280;63673;49.928;8.150;2024-01-30T02:15:18;1004.5;;;0.49;100
75089;BME280;63673;49.928;8.150;2024-01-30T02:16:19;1004.41;;;0.47;100
75089;BME280;63673;49.928;8.150;2024-01-30T02:17:21;1004.42;;;0.46;100
75089;BME280;63673;49.928;8.150;2024-01-30T02:18:23;1004.45;;;0.45;100
75089;BME280;63673;49.928;8.150;2024-01-30T02:19:25;1004.44;;;0.42;100
75089;BME280;63673;49.928;8.150;2024-01-30T02:20:26;1004.46;;;0.42;100
75089;BME280;63673;49.928;8.150;2024-01-30T02:21:28;1004.45;;;0.42;100
75089;BME280;63673;49.928;8.150;2024-01-30T02:22:30;1004.45;;;0.41;100
75089;BME280;63673;49.928;8.150;2024-01-30T02:23:31;1004.46;;;0.41;100
75089;BME280;63673;49.928;8.150;2024-01-30T02:24:33;1004.48;;;0.41;100
75089;BME280;63673;49.928;8.150;2024-01-30T02:25:40;1004.46;;;0.41;100
75089;BME280;63673;49.928;8.150;2024-01-30T02:26:37;1004.43;;;0.4;100
75089;BME280;63673;49.928;8.150;2024-01-30T02:27:38;1004.44;;;0.41;100
75089;BME280;63673;49.928;8.150;2024-01-30T02:28:40;1004.47;;;0.41;100
75089;BME280;63673;49.928;8.150;2024-01-30T02:29:42;1004.44;;;0.41;100
75089;BME280;63673;49.928;8.150;2024-01-30T02:30:44;1004.43;;;0.41;100
75089;BME280;63673;49.928;8.150;2024-01-30T02:31:45;1004.45;;;0.41;100
75089;BME280;63673;49.928;8.150;2024-01-30T02:32:47;1004.46;;;0.42;100
75089;BME280;63673;49.928;8.150;2024-01-30T02:33:49;1004.5;;;0.41;100
75089;BME280;63673;49.928;8.150;2024-01-30T02:34:51;1004.51;;;0.41;100
75089;BME280;63673;49.928;8.150;2024-01-30T02:35:52;1004.46;;;0.42;100
75089;BME280;63673;49.928;8.150;2024-01-30T02:36:54;1004.58;;;0.42;100
75089;BME280;63673;49.928;8.150;2024-01-30T02:37:56;1004.49;;;0.41;100
75089;BME280;63673;49.928;8.150;2024-01-30T02:38:57;1004.47;;;0.42;100
75089;BME280;63673;49.928;8.150;2024-01-30T02:39:59;1004.44;;;0.41;100
75089;BME280;63673;49.928;8.150;2024-01-30T02:41:01;1004.46;;;0.41;100
75089;BME280;63673;49.928;8.150;2024-01-30T02:42:03;1004.53;;;0.42;100
75089;BME280;63673;49.928;8.150;2024-01-30T02:43:04;1004.5;;;0.41;100
75089;BME280;63673;49.928;8.150;2024-01-30T02:44:06;1004.45;;;0.41;100
75089;BME280;63673;49.928;8.150;2024-01-30T02:45:08;1004.53;;;0.42;100
75089;BME280;63673;49.928;8.150;2024-01-30T02:46:10;1004.51;;;0.43;100
75089;BME280;63673;49.928;8.150;2024-01-30T02:47:11;1004.5;;;0.44;100
75089;BME280;63673;49.928;8.150;2024-01-30T02:48:13;1004.53;;;0.43;100
75089;BME280;63673;49.928;8.150;2024-01-30T02:49:15;1004.44;;;0.44;100
75089;BME280;63673;49.928;8.150;2024-01-30T02:50:17;1004.47;;;0.46;100
75089;BME280;63673;49.928;8.150;2024-01-30T02:51:18;1004.47;;;0.46;100
75089;BME280;63673;49.928;8.150;2024-01-30T02:52:20;1004.45;;;0.46;100
75089;BME280;63673;49.928;8.150;2024-01-30T02:53:22;1004.44;;;0.46;100
75089;BME280;63673;49.928;8.150;2024-01-30T02:54:23;1004.45;;;0.48;100
75089;BME280;63673;49.928;8.150;2024-01-30T02:55:25;1004.46;;;0.48;100
75089;BME280;63673;49.928;8.150;2024-01-30T02:56:27;1004.44;;;0.5;100
75089;BME280;63673;49.928;8.150;2024-01-30T02:57:29;1004.46;;;0.49;100
75089;BME280;63673;49.928;8.150;2024-01-30T02:58:31;1004.46;;;0.49;100
75089;BME280;63673;49.928;8.150;2024-01-30T02:59:32;1004.42;;;0.49;100
75089;BME280;63673;49.928;8.150;2024-01-30T03:00:34;1004.42;;;0.49;100
75089;BME280;63673;49.928;8.150;2024-01-30T03:01:42;1004.38;;;0.48;100
75089;BME280;63673;49.928;8.150;2024-01-30T03:02:37;1004.4;;;0.48;100
75089;BME280;63673;49.928;8.150;2024-01-30T03:03:39;1004.38;;;0.49;100
75089;BME280;63673;49.928;8.150;2024-01-30T03:04:41;1004.35;;;0.49;100
75089;BME280;63673;49.928;8.150;2024-01-30T03:05:43;1004.37;;;0.48;100
75089;BME280;63673;49.928;8.150;2024-01-30T03:06:45;1004.33;;;0.49;100
75089;BME280;63673;49.928;8.150;2024-01-30T03:07:46;1004.39;;;0.49;100
75089;BME280;63673;49.928;8.150;2024-01-30T03:08:48;1004.34;;;0.49;100
75089;BME280;63673;49.928;8.150;2024-01-30T03:09:49;1004.34;;;0.49;100
75089;BME280;63673;49.928;8.150;2024-01-30T03:10:51;1004.35;;;0.49;100
75089;BME280;63673;49.928;8.150;2024-01-30T03:11:53;1004.38;;;0.49;100
75089;BME280;63673;49.928;8.150;2024-01-30T03:12:55;1004.32;;;0.49;100
75089;BME280;63673;49.928;8.150;2024-01-30T03:13:56;1004.33;;;0.49;100
75089;BME280;63673;49.928;8.150;2024-01-30T03:14:58;1004.39;;;0.49;100
75089;BME280;63673;49.928;8.150;2024-01-30T03:16:00;1004.38;;;0.49;100
75089;BME280;63673;49.928;8.150;2024-01-30T03:17:02;1004.36;;;0.48;100
75089;BME280;63673;49.928;8.150;2024-01-30T03:18:04;1004.38;;;0.48;100
75089;BME280;63673;49.928;8.150;2024-01-30T03:19:06;1004.37;;;0.47;100
75089;BME280;63673;49.928;8.150;2024-01-30T03:20:07;1004.36;;;0.46;100
75089;BME280;63673;49.928;8.150;2024-01-30T03:21:09;1004.41;;;0.46;100
75089;BME280;63673;49.928;8.150;2024-01-30T03:22:10;1004.37;;;0.45;100
75089;BME280;63673;49.928;8.150;2024-01-30T03:23:12;1004.37;;;0.45;100
75089;BME280;63673;49.928;8.150;2024-01-30T03:24:14;1004.4;;;0.45;100
75089;BME280;63673;49.928;8.150;2024-01-30T03:25:15;1004.33;;;0.44;100
75089;BME280;63673;49.928;8.150;2024-01-30T03:26:17;1004.37;;;0.45;100
75089;BME280;63673;49.928;8.150;2024-01-30T03:27:19;1004.41;;;0.44;100
75089;BME280;63673;49.928;8.150;2024-01-30T03:28:21;1004.32;;;0.45;100
75089;BME280;63673;49.928;8.150;2024-01-30T03:29:22;1004.39;;;0.45;100
75089;BME280;63673;49.928;8.150;2024-01-30T03:30:24;1004.35;;;0.44;100
75089;BME280;63673;49.928;8.150;2024-01-30T03:31:26;1004.34;;;0.45;100
75089;BME280;63673;49.928;8.150;2024-01-30T03:32:28;1004.3;;;0.45;100
75089;BME280;63673;49.928;8.150;2024-01-30T03:33:29;1004.31;;;0.46;100
75089;BME280;63673;49.928;8.150;2024-01-30T03:34:31;1004.35;;;0.46;100
75089;BME280;63673;49.928;8.150;2024-01-30T03:35:33;1004.34;;;0.47;100
75089;BME280;63673;49.928;8.150;2024-01-30T03:36:35;1004.38;;;0.47;100
75089;BME280;63673;49.928;8.150;2024-01-30T03:37:36;1004.34;;;0.48;100
75089;BME280;63673;49.928;8.150;2024-01-30T03:38:38;1004.35;;;0.48;100
75089;BME280;63673;49.928;8.150;2024-01-30T03:39:40;1004.33;;;0.49;100
75089;BME280;63673;49.928;8.150;2024-01-30T03:40:41;1004.37;;;0.49;100
75089;BME280;63673;49.928;8.150;2024-01-30T03:41:43;1004.31;;;0.49;100
75089;BME280;63673;49.928;8.150;2024-01-30T03:42:45;1004.33;;;0.51;100
75089;BME280;63673;49.928;8.150;2024-01-30T03:43:47;1004.38;;;0.51;100
75089;BME280;63673;49.928;8.150;2024-01-30T03:44:48;1004.34;;;0.52;100
75089;BME280;63673;49.928;8.150;2024-01-30T03:45:50;1004.38;;;0.52;100
75089;BME280;63673;49.928;8.150;2024-01-30T03:46:52;1004.35;;;0.53;100
75089;BME280;63673;49.928;8.150;2024-01-30T03:47:54;1004.31;;;0.54;100
75089;BME280;63673;49.928;8.150;2024-01-30T03:48:55;1004.34;;;0.54;100
75089;BME280;63673;49.928;8.150;2024-01-30T03:49:57;1004.29;;;0.54;100
75089;BME280;63673;49.928;8.150;2024-01-30T03:50:59;1004.32;;;0.53;100
75089;BME280;63673;49.928;8.150;2024-01-30T03:52:01;1004.3;;;0.53;100
75089;BME280;63673;49.928;8.150;2024-01-30T03:53:02;1004.3;;;0.54;100
75089;BME280;63673;49.928;8.150;2024-01-30T03:54:04;1004.31;;;0.53;100
75089;BME280;63673;49.928;8.150;2024-01-30T03:55:06;1004.35;;;0.53;100
75089;BME280;63673;49.928;8.150;2024-01-30T03:56:08;1004.36;;;0.52;100
75089;BME280;63673;49.928;8.150;2024-01-30T03:57:09;1004.32;;;0.52;100
75089;BME280;63673;49.928;8.150;2024-01-30T03:58:11;1004.29;;;0.51;100
75089;BME280;63673;49.928;8.150;2024-01-30T03:59:13;1004.33;;;0.5;100
75089;BME280;63673;49.928;8.150;2024-01-30T04:00:15;1004.34;;;0.5;100
75089;BME280;63673;49.928;8.150;2024-01-30T04:01:16;1004.34;;;0.49;100
75089;BME280;63673;49.928;8.150;2024-01-30T04:02:18;1004.31;;;0.48;100
75089;BME280;63673;49.928;8.150;2024-01-30T04:03:20;1004.32;;;0.49;100
75089;BME280;63673;49.928;8.150;2024-01-30T04:04:23;1004.33;;;0.49;100
75089;BME280;63673;49.928;8.150;2024-01-30T04:05:23;1004.26;;;0.48;100
75089;BME280;63673;49.928;8.150;2024-01-30T04:06:25;1004.3;;;0.49;100
75089;BME280;63673;49.928;8.150;2024-01-30T04:07:27;1004.29;;;0.48;100
75089;BME280;63673;49.928;8.150;2024-01-30T04:08:28;1004.32;;;0.48;100
75089;BME280;63673;49.928;8.150;2024-01-30T04:09:30;1004.24;;;0.49;100
75089;BME280;63673;49.928;8.150;2024-01-30T04:10:32;1004.29;;;0.49;100
75089;BME280;63673;49.928;8.150;2024-01-30T04:11:33;1004.21;;;0.49;100
75089;BME280;63673;49.928;8.150;2024-01-30T04:12:35;1004.23;;;0.49;100
75089;BME280;63673;49.928;8.150;2024-01-30T04:13:37;1004.21;;;0.49;100
75089;BME280;63673;49.928;8.150;2024-01-30T04:14:39;1004.14;;;0.48;100
75089;BME280;63673;49.928;8.150;2024-01-30T04:15:40;1004.23;;;0.48;100
75089;BME280;63673;49.928;8.150;2024-01-30T04:16:42;1004.29;;;0.48;100
75089;BME280;63673;49.928;8.150;2024-01-30T04:17:45;1004.31;;;0.47;100
75089;BME280;63673;49.928;8.150;2024-01-30T04:18:46;1004.28;;;0.46;100
75089;BME280;63673;49.928;8.150;2024-01-30T04:19:47;1004.26;;;0.45;100
75089;BME280;63673;49.928;8.150;2024-01-30T04:20:49;1004.25;;;0.44;100
75089;BME280;63673;49.928;8.150;2024-01-30T04:21:51;1004.27;;;0.43;100
75089;BME280;63673;49.928;8.150;2024-01-30T04:22:53;1004.27;;;0.41;100
75089;BME280;63673;49.928;8.150;2024-01-30T04:23:54;1004.28;;;0.4;100
75089;BME280;63673;49.928;8.150;2024-01-30T04:24:56;1004.25;;;0.39;100
75089;BME280;63673;49.928;8.150;2024-01-30T04:25:58;1004.29;;;0.38;100
75089;BME280;63673;49.928;8.150;2024-01-30T04:26:59;1004.27;;;0.37;100
75089;BME280;63673;49.928;8.150;2024-01-30T04:28:01;1004.26;;;0.35;100
75089;BME280;63673;49.928;8.150;2024-01-30T04:29:03;1004.3;;;0.34;100
75089;BME280;63673;49.928;8.150;2024-01-30T04:30:05;1004.29;;;0.33;100
75089;BME280;63673;49.928;8.150;2024-01-30T04:31:06;1004.33;;;0.32;100
75089;BME280;63673;49.928;8.150;2024-01-30T04:32:09;1004.3;;;0.3;100
75089;BME280;63673;49.928;8.150;2024-01-30T04:33:10;1004.3;;;0.32;100
75089;BME280;63673;49.928;8.150;2024-01-30T04:34:12;1004.34;;;0.3;100
75089;BME280;63673;49.928;8.150;2024-01-30T04:35:13;1004.29;;;0.31;100
75089;BME280;63673;49.928;8.150;2024-01-30T04:36:15;1004.31;;;0.3;100
75089;BME280;63673;49.928;8.150;2024-01-30T04:37:17;1004.31;;;0.31;100
75089;BME280;63673;49.928;8.150;2024-01-30T04:38:19;1004.37;;;0.31;100
75089;BME280;63673;49.928;8.150;2024-01-30T04:39:20;1004.36;;;0.31;100
75089;BME280;63673;49.928;8.150;2024-01-30T04:40:22;1004.35;;;0.31;100
75089;BME280;63673;49.928;8.150;2024-01-30T04:41:24;1004.34;;;0.3;100
75089;BME280;63673;49.928;8.150;2024-01-30T04:42:26;1004.3;;;0.29;100
75089;BME280;63673;49.928;8.150;2024-01-30T04:43:27;1004.32;;;0.29;100
75089;BME280;63673;49.928;8.150;2024-01-30T04:44:29;1004.32;;;0.3;100
75089;BME280;63673;49.928;8.150;2024-01-30T04:45:31;1004.33;;;0.29;100
75089;BME280;63673;49.928;8.150;2024-01-30T04:46:32;1004.29;;;0.3;100
75089;BME280;63673;49.928;8.150;2024-01-30T04:47:34;1004.3;;;0.29;100
75089;BME280;63673;49.928;8.150;2024-01-30T04:48:36;1004.31;;;0.28;100
75089;BME280;63673;49.928;8.150;2024-01-30T04:49:38;1004.3;;;0.27;100
75089;BME280;63673;49.928;8.150;2024-01-30T04:50:39;1004.32;;;0.26;100
75089;BME280;63673;49.928;8.150;2024-01-30T04:51:41;1004.34;;;0.26;100
75089;BME280;63673;49.928;8.150;2024-01-30T04:52:43;1004.36;;;0.25;100
75089;BME280;63673;49.928;8.150;2024-01-30T04:53:45;1004.34;;;0.24;100
75089;BME280;63673;49.928;8.150;2024-01-30T04:54:46;1004.36;;;0.25;100
75089;BME280;63673;49.928;8.150;2024-01-30T04:55:48;1004.32;;;0.23;100
75089;BME280;63673;49.928;8.150;2024-01-30T04:56:50;1004.37;;;0.23;100
75089;BME280;63673;49.928;8.150;2024-01-30T04:57:52;1004.31;;;0.21;100
75089;BME280;63673;49.928;8.150;2024-01-30T04:58:53;1004.34;;;0.21;100
75089;BME280;63673;49.928;8.150;2024-01-30T04:59:55;1004.37;;;0.2;100
75089;BME280;63673;49.928;8.150;2024-01-30T05:00:57;1004.35;;;0.2;100
75089;BME280;63673;49.928;8.150;2024-01-30T05:01:58;1004.33;;;0.19;100
75089;BME280;63673;49.928;8.150;2024-01-30T05:03:00;1004.33;;;0.18;100
75089;BME280;63673;49.928;8.150;2024-01-30T05:04:02;1004.4;;;0.18;100
75089;BME280;63673;49.928;8.150;2024-01-30T05:05:04;1004.38;;;0.15;100
75089;BME280;63673;49.928;8.150;2024-01-30T05:06:06;1004.29;;;0.15;100
75089;BME280;63673;49.928;8.150;2024-01-30T05:07:07;1004.4;;;0.15;100
75089;BME280;63673;49.928;8.150;2024-01-30T05:08:09;1004.36;;;0.14;100
75089;BME280;63673;49.928;8.150;2024-01-30T05:09:11;1004.37;;;0.13;100
75089;BME280;63673;49.928;8.150;2024-01-30T05:10:12;1004.39;;;0.12;100
75089;BME280;63673;49.928;8.150;2024-01-30T05:11:14;1004.4;;;0.11;100
75089;BME280;63673;49.928;8.150;2024-01-30T05:12:16;1004.4;;;0.11;100
75089;BME280;63673;49.928;8.150;2024-01-30T05:13:17;1004.43;;;0.09;100
75089;BME280;63673;49.928;8.150;2024-01-30T05:14:19;1004.4;;;0.09;100
75089;BME280;63673;49.928;8.150;2024-01-30T05:15:21;1004.39;;;0.08;100
75089;BME280;63673;49.928;8.150;2024-01-30T05:16:23;1004.38;;;0.06;100
75089;BME280;63673;49.928;8.150;2024-01-30T05:17:24;1004.35;;;0.05;100
75089;BME280;63673;49.928;8.150;2024-01-30T05:18:26;1004.38;;;0.05;100
75089;BME280;63673;49.928;8.150;2024-01-30T05:19:28;1004.37;;;0.03;100
75089;BME280;63673;49.928;8.150;2024-01-30T05:20:30;1004.4;;;0.01;100
75089;BME280;63673;49.928;8.150;2024-01-30T05:21:31;1004.42;;;0;100
75089;BME280;63673;49.928;8.150;2024-01-30T05:22:33;1004.44;;;-0.01;100
75089;BME280;63673;49.928;8.150;2024-01-30T05:23:35;1004.46;;;-0.02;100
75089;BME280;63673;49.928;8.150;2024-01-30T05:24:37;1004.49;;;-0.04;100
75089;BME280;63673;49.928;8.150;2024-01-30T05:25:38;1004.47;;;-0.06;100
75089;BME280;63673;49.928;8.150;2024-01-30T05:26:40;1004.4;;;-0.06;100
75089;BME280;63673;49.928;8.150;2024-01-30T05:27:42;1004.44;;;-0.08;100
75089;BME280;63673;49.928;8.150;2024-01-30T05:28:44;1004.43;;;-0.09;100
75089;BME280;63673;49.928;8.150;2024-01-30T05:29:45;1004.47;;;-0.1;100
75089;BME280;63673;49.928;8.150;2024-01-30T05:30:47;1004.46;;;-0.11;100
75089;BME280;63673;49.928;8.150;2024-01-30T05:31:49;1004.43;;;-0.13;100
75089;BME280;63673;49.928;8.150;2024-01-30T05:32:50;1004.47;;;-0.14;100
75089;BME280;63673;49.928;8.150;2024-01-30T05:33:52;1004.44;;;-0.15;100
75089;BME280;63673;49.928;8.150;2024-01-30T05:34:54;1004.48;;;-0.15;100
75089;BME280;63673;49.928;8.150;2024-01-30T05:35:56;1004.47;;;-0.18;100
75089;BME280;63673;49.928;8.150;2024-01-30T05:36:57;1004.49;;;-0.17;100
75089;BME280;63673;49.928;8.150;2024-01-30T05:37:59;1004.47;;;-0.18;100
75089;BME280;63673;49.928;8.150;2024-01-30T05:39:01;1004.46;;;-0.2;100
75089;BME280;63673;49.928;8.150;2024-01-30T05:40:08;1004.45;;;-0.2;100
75089;BME280;63673;49.928;8.150;2024-01-30T05:41:09;1004.45;;;-0.21;100
75089;BME280;63673;49.928;8.150;2024-01-30T05:42:11;1004.41;;;-0.22;100
75089;BME280;63673;49.928;8.150;2024-01-30T05:43:13;1004.42;;;-0.23;100
75089;BME280;63673;49.928;8.150;2024-01-30T05:44:15;1004.45;;;-0.24;100
75089;BME280;63673;49.928;8.150;2024-01-30T05:45:16;1004.38;;;-0.24;100
75089;BME280;63673;49.928;8.150;2024-01-30T05:46:18;1004.4;;;-0.24;100
75089;BME280;63673;49.928;8.150;2024-01-30T05:47:20;1004.33;;;-0.25;100